Time;durP1;ratioP1;P1;durP2;ratioP2;P2;SDS_P1;SDS_P2;PMS_P1;PMS_P2;Temp;Humidity;BMP_temperature;BMP_pressure;BME280_temperature;BME280_humidity;BME280_pressure;Samples;Min_cycle;Max_cycle;Signal;HPM_P1;HPM_P2
2021/12/16 00:07:17;;;;;;;;;;;9.10;99.90;;;;;;5086290;28;19927;-86
2021/12/16 00:29:19;;;;;;;;;;;9.20;99.90;;;;;;5091376;28;19942;-87
2021/12/16 00:31:52;;;;;;;;;;;9.10;99.90;;;;;;5101204;28;19924;-87
2021/12/16 00:34:20;;;;;;;;;;;9.10;99.90;;;;;;5100854;28;19923;-87
2021/12/16 00:36:47;;;;;;;;;;;9.10;99.90;;;;;;5099357;28;19913;-85
2021/12/16 00:39:17;;;;;;;;;;;9.10;99.90;;;;;;5099398;28;19950;-86
2021/12/16 00:41:46;;;;;;;;;;;9.10;99.90;;;;;;5097447;28;19925;-86
2021/12/16 00:44:35;;;;;;;;;;;9.20;99.90;;;;;;5087633;28;19936;-86
2021/12/16 00:47:14;;;;;;;;;;;9.10;99.90;;;;;;5086690;28;19931;-86
2021/12/16 00:49:45;;;;;;;;;;;9.10;99.90;;;;;;5090631;28;19950;-86
2021/12/16 00:55:05;;;;;;;;;;;9.00;99.90;;;;;;5092850;28;19931;-85
2021/12/16 00:57:32;;;;;;;;;;;9.20;99.90;;;;;;5091031;28;19929;-86
2021/12/16 01:00:02;;;;;;;;;;;9.10;99.90;;;;;;5086576;28;19924;-86
2021/12/16 01:08:13;;;;;;;;;;;9.10;99.90;;;;;;5080247;28;19920;-87
2021/12/16 01:35:32;;;;;;;;;;;9.00;99.90;;;;;;5092446;28;19930;-86
2021/12/16 01:49:26;;;;;;;;;;;9.00;99.90;;;;;;5120870;27;20366;-86
2021/12/16 01:52:07;;;;;;;;;;;9.00;99.90;;;;;;5120087;28;19932;-86
2021/12/16 01:54:48;;;;;;;;;;;9.00;99.90;;;;;;5122019;28;19924;-86
2021/12/16 01:57:19;;;;;;;;;;;9.10;99.90;;;;;;5119797;28;19928;-86
2021/12/16 01:59:55;;;;;;;;;;;8.90;99.90;;;;;;5119542;28;20404;-87
2021/12/16 02:02:34;;;;;;;;;;;8.80;99.90;;;;;;5134013;28;19938;-86
2021/12/16 02:05:19;;;;;;;;;;;8.80;99.90;;;;;;5136056;28;19996;-85
2021/12/16 02:08:07;;;;;;;;;;;8.80;99.90;;;;;;5136462;28;19949;-85
2021/12/16 02:10:38;;;;;;;;;;;8.70;99.90;;;;;;5136652;28;19940;-85
2021/12/16 02:13:19;;;;;;;;;;;8.70;99.90;;;;;;5136762;28;19912;-84
2021/12/16 02:29:46;;;;;;;;;;;8.80;99.90;;;;;;5119329;28;19931;-86
2021/12/16 02:32:29;;;;;;;;;;;8.70;99.90;;;;;;5119011;28;19982;-86
2021/12/16 02:35:10;;;;;;;;;;;8.80;99.90;;;;;;5118118;28;19963;-87
2021/12/16 02:37:45;;;;;;;;;;;8.60;99.90;;;;;;5126324;28;19931;-85
2021/12/16 02:40:12;;;;;;;;;;;8.50;99.90;;;;;;5132623;28;19924;-83
2021/12/16 02:42:51;;;;;;;;;;;8.50;99.90;;;;;;5132196;28;19924;-87
2021/12/16 02:50:46;;;;;;;;;;;8.60;99.90;;;;;;5139731;28;19926;-87
2021/12/16 02:53:14;;;;;;;;;;;8.60;99.90;;;;;;5138388;27;19930;-87
2021/12/16 02:55:42;;;;;;;;;;;8.60;99.90;;;;;;5149270;27;19924;-85
2021/12/16 02:58:09;;;;;;;;;;;8.70;99.90;;;;;;5153885;28;19945;-85
2021/12/16 03:00:39;;;;;;;;;;;9.00;99.90;;;;;;5141598;28;19908;-85
2021/12/16 03:03:05;;;;;;;;;;;8.70;99.90;;;;;;5142014;28;19935;-85
2021/12/16 03:05:32;;;;;;;;;;;8.70;99.90;;;;;;5112678;22;19913;-82
2021/12/16 03:07:59;;;;;;;;;;;8.80;99.90;;;;;;5075183;28;19933;-81
2021/12/16 03:13:22;;;;;;;;;;;8.70;99.90;;;;;;5071383;28;19947;-82
2021/12/16 03:16:00;;;;;;;;;;;8.80;99.90;;;;;;5068051;28;19939;-81
2021/12/16 03:18:34;;;;;;;;;;;8.80;99.90;;;;;;5066739;28;19925;-81
2021/12/16 03:21:07;;;;;;;;;;;8.80;99.90;;;;;;5064381;28;19975;-82
2021/12/16 03:23:47;;;;;;;;;;;8.80;99.90;;;;;;5063132;28;19931;-81
2021/12/16 03:26:51;;;;;;;;;;;8.80;99.90;;;;;;5063597;28;19925;-81
2021/12/16 03:29:59;;;;;;;;;;;8.80;99.90;;;;;;5064462;28;19947;-81
2021/12/16 03:35:29;;;;;;;;;;;8.80;99.90;;;;;;5063652;28;19921;-81
2021/12/16 03:37:56;;;;;;;;;;;8.80;99.90;;;;;;5063148;28;19947;-81
2021/12/16 03:40:23;;;;;;;;;;;8.80;99.90;;;;;;5062903;28;20383;-81
2021/12/16 03:42:52;;;;;;;;;;;8.80;99.90;;;;;;5063235;28;19951;-81
2021/12/16 03:48:03;;;;;;;;;;;8.70;99.90;;;;;;5067011;28;19925;-81
2021/12/16 03:50:29;;;;;;;;;;;8.80;99.90;;;;;;5068699;28;19936;-81
2021/12/16 03:52:56;;;;;;;;;;;8.70;99.90;;;;;;5068822;28;19932;-82
2021/12/16 03:55:22;;;;;;;;;;;8.80;99.90;;;;;;5068238;28;19925;-81
2021/12/16 03:57:49;;;;;;;;;;;8.80;99.90;;;;;;5064644;28;19979;-83
2021/12/16 04:00:19;;;;;;;;;;;8.80;99.90;;;;;;5075177;28;19925;-82
2021/12/16 04:02:45;;;;;;;;;;;8.80;99.90;;;;;;5069532;28;19979;-82
2021/12/16 04:05:13;;;;;;;;;;;8.80;99.90;;;;;;5065913;28;19947;-82
2021/12/16 04:07:40;;;;;;;;;;;8.80;99.90;;;;;;5065461;28;19972;-82
2021/12/16 04:10:08;;;;;;;;;;;8.80;99.90;;;;;;5065341;28;20296;-82
2021/12/16 04:12:35;;;;;;;;;;;8.80;99.90;;;;;;5067873;28;19925;-82
2021/12/16 04:15:04;;;;;;;;;;;8.80;99.90;;;;;;5063719;28;19928;-82
2021/12/16 04:17:35;;;;;;;;;;;8.80;99.90;;;;;;5064245;28;19924;-81
2021/12/16 04:20:03;;;;;;;;;;;8.80;99.90;;;;;;5064420;28;19928;-82
2021/12/16 04:22:33;;;;;;;;;;;8.80;99.90;;;;;;5064283;28;19928;-82
2021/12/16 04:25:01;;;;;;;;;;;8.80;99.90;;;;;;5064129;28;19964;-82
2021/12/16 04:27:28;;;;;;;;;;;8.80;99.90;;;;;;5064778;28;19925;-81
2021/12/16 04:29:54;;;;;;;;;;;8.80;99.90;;;;;;5069451;28;19971;-82
2021/12/16 04:32:21;;;;;;;;;;;8.80;99.90;;;;;;5073173;28;19932;-81
2021/12/16 04:34:49;;;;;;;;;;;8.80;99.90;;;;;;5075587;28;19924;-80
2021/12/16 04:37:16;;;;;;;;;;;8.80;99.90;;;;;;5077166;28;19908;-80
2021/12/16 04:39:43;;;;;;;;;;;8.80;99.90;;;;;;5076419;28;19932;-81
2021/12/16 04:42:10;;;;;;;;;;;8.80;99.90;;;;;;5075168;28;19925;-81
2021/12/16 04:44:37;;;;;;;;;;;8.80;99.90;;;;;;5077207;28;19925;-81
2021/12/16 04:47:04;;;;;;;;;;;8.80;99.90;;;;;;5074475;28;19925;-81
2021/12/16 04:49:31;;;;;;;;;;;8.80;99.90;;;;;;5073874;28;19925;-81
2021/12/16 04:52:00;;;;;;;;;;;8.80;99.90;;;;;;5072898;28;19932;-81
2021/12/16 04:54:29;;;;;;;;;;;8.80;99.90;;;;;;5071742;28;19925;-81
2021/12/16 04:56:56;;;;;;;;;;;8.80;99.90;;;;;;5071236;28;19947;-81
2021/12/16 04:59:23;;;;;;;;;;;8.60;99.90;;;;;;5071512;28;19925;-81
2021/12/16 05:01:51;;;;;;;;;;;8.70;99.90;;;;;;5071837;28;19936;-81
2021/12/16 05:04:18;;;;;;;;;;;8.70;99.90;;;;;;5070869;28;20376;-81
2021/12/16 05:06:45;;;;;;;;;;;8.70;99.90;;;;;;5071819;28;19924;-81
2021/12/16 05:09:26;;;;;;;;;;;8.70;99.90;;;;;;5071408;28;19971;-81
2021/12/16 05:11:53;;;;;;;;;;;8.70;99.90;;;;;;5071579;28;19925;-82
2021/12/16 05:14:20;;;;;;;;;;;8.60;99.90;;;;;;5070502;28;19928;-81
2021/12/16 05:16:46;;;;;;;;;;;8.60;99.90;;;;;;5068790;28;19991;-81
2021/12/16 05:19:13;;;;;;;;;;;8.60;99.90;;;;;;5068192;28;19925;-81
2021/12/16 05:21:46;;;;;;;;;;;8.60;99.90;;;;;;5069087;28;19928;-81
2021/12/16 05:24:17;;;;;;;;;;;8.60;99.90;;;;;;5069961;28;19932;-81
2021/12/16 05:26:44;;;;;;;;;;;8.50;99.90;;;;;;5069464;28;19992;-81
2021/12/16 05:29:11;;;;;;;;;;;8.50;99.90;;;;;;5069356;28;19925;-81
2021/12/16 05:31:37;;;;;;;;;;;8.60;99.90;;;;;;5066403;28;19909;-81
2021/12/16 05:34:04;;;;;;;;;;;8.50;99.90;;;;;;5069015;28;19925;-82
2021/12/16 05:36:31;;;;;;;;;;;8.50;99.90;;;;;;5060343;28;19979;-80
2021/12/16 05:38:58;;;;;;;;;;;8.40;99.90;;;;;;5059907;28;19925;-80
2021/12/16 05:41:26;;;;;;;;;;;8.40;99.90;;;;;;5060492;28;19947;-80
2021/12/16 05:43:53;;;;;;;;;;;8.40;99.90;;;;;;5063853;28;19936;-81
2021/12/16 05:46:21;;;;;;;;;;;8.30;99.90;;;;;;5067538;28;19991;-81
2021/12/16 05:48:48;;;;;;;;;;;8.30;99.90;;;;;;5064720;28;19929;-81
2021/12/16 05:51:17;;;;;;;;;;;8.20;99.90;;;;;;5064222;28;19925;-81
2021/12/16 05:53:43;;;;;;;;;;;8.10;99.90;;;;;;5062205;28;19936;-81
2021/12/16 05:56:10;;;;;;;;;;;8.10;99.90;;;;;;5060476;28;19929;-81
2021/12/16 05:58:38;;;;;;;;;;;8.00;99.90;;;;;;5060219;28;19932;-80
2021/12/16 06:01:06;;;;;;;;;;;8.00;99.90;;;;;;5060714;28;19924;-80
2021/12/16 06:03:33;;;;;;;;;;;8.00;99.90;;;;;;5058953;28;19929;-80
2021/12/16 06:05:59;;;;;;;;;;;8.00;99.90;;;;;;5058271;28;19960;-81
2021/12/16 06:08:26;;;;;;;;;;;7.90;99.90;;;;;;5059052;28;19993;-80
2021/12/16 06:11:14;;;;;;;;;;;8.00;99.90;;;;;;5057924;28;19960;-81
2021/12/16 06:13:46;;;;;;;;;;;7.90;99.90;;;;;;5058706;28;19932;-81
2021/12/16 06:27:11;;;;;;;;;;;7.90;99.90;;;;;;5059929;28;19951;-81
2021/12/16 06:29:41;;;;;;;;;;;8.00;99.90;;;;;;5059571;28;19986;-81
2021/12/16 06:32:08;;;;;;;;;;;7.90;99.90;;;;;;5059550;28;19925;-83
2021/12/16 06:34:34;;;;;;;;;;;7.90;99.90;;;;;;5060383;28;19963;-80
2021/12/16 06:37:02;;;;;;;;;;;8.00;99.90;;;;;;5062579;28;19978;-81
2021/12/16 06:39:28;;;;;;;;;;;8.00;99.90;;;;;;5062270;28;20388;-81
2021/12/16 06:41:55;;;;;;;;;;;8.00;99.90;;;;;;5063241;28;19971;-81
2021/12/16 06:44:25;;;;;;;;;;;8.00;99.90;;;;;;5063064;28;20383;-81
2021/12/16 06:46:59;;;;;;;;;;;8.00;99.90;;;;;;5063230;28;19991;-81
2021/12/16 06:49:26;;;;;;;;;;;8.00;99.90;;;;;;5062998;28;19924;-81
2021/12/16 06:51:56;;;;;;;;;;;8.00;99.90;;;;;;5062952;28;19929;-80
2021/12/16 06:54:27;;;;;;;;;;;8.00;99.90;;;;;;5063454;28;19967;-81
2021/12/16 06:57:04;;;;;;;;;;;8.00;99.90;;;;;;5062641;28;19932;-82
2021/12/16 06:59:33;;;;;;;;;;;8.10;99.90;;;;;;5062671;28;19929;-81
2021/12/16 07:02:11;;;;;;;;;;;8.10;99.90;;;;;;5062546;28;20445;-81
2021/12/16 07:04:38;;;;;;;;;;;8.10;99.90;;;;;;5063140;28;19925;-81
2021/12/16 07:07:05;;;;;;;;;;;8.10;99.90;;;;;;5077071;28;20011;-80
2021/12/16 07:09:32;;;;;;;;;;;8.20;99.90;;;;;;5066544;28;19932;-82
2021/12/16 07:12:00;;;;;;;;;;;8.20;99.90;;;;;;5066662;28;20371;-81
2021/12/16 07:14:36;;;;;;;;;;;8.20;99.90;;;;;;5068999;28;19925;-82
2021/12/16 07:17:05;;;;;;;;;;;8.20;99.90;;;;;;5069032;28;19924;-81
2021/12/16 07:19:32;;;;;;;;;;;8.20;99.90;;;;;;5068904;28;20375;-82
2021/12/16 07:21:58;;;;;;;;;;;8.30;99.90;;;;;;5069887;28;19976;-82
2021/12/16 07:24:25;;;;;;;;;;;8.40;99.90;;;;;;5067760;28;19929;-82
2021/12/16 07:26:52;;;;;;;;;;;8.40;99.90;;;;;;5069130;28;19925;-82
2021/12/16 07:29:18;;;;;;;;;;;8.50;99.90;;;;;;5068144;28;19925;-82
2021/12/16 07:31:45;;;;;;;;;;;8.40;99.90;;;;;;5066705;28;19925;-81
2021/12/16 07:34:13;;;;;;;;;;;8.40;99.90;;;;;;5068297;28;19925;-82
2021/12/16 07:36:42;;;;;;;;;;;8.40;99.90;;;;;;5065871;28;19925;-81
2021/12/16 07:39:10;;;;;;;;;;;8.50;99.90;;;;;;5067228;28;19924;-80
2021/12/16 07:41:39;;;;;;;;;;;8.40;99.90;;;;;;5067100;28;19925;-81
2021/12/16 07:44:13;;;;;;;;;;;8.40;99.90;;;;;;5069407;28;20379;-81
2021/12/16 07:46:41;;;;;;;;;;;8.40;99.90;;;;;;5069651;28;19936;-82
2021/12/16 07:49:08;;;;;;;;;;;8.40;99.90;;;;;;5073380;28;19971;-82
2021/12/16 07:51:36;;;;;;;;;;;8.50;99.90;;;;;;5071752;28;19925;-82
2021/12/16 07:54:03;;;;;;;;;;;8.30;99.90;;;;;;5068536;28;19925;-81
2021/12/16 07:56:30;;;;;;;;;;;8.30;99.90;;;;;;5070472;28;19951;-82
2021/12/16 07:58:56;;;;;;;;;;;8.40;99.90;;;;;;5071228;28;19947;-82
2021/12/16 08:01:23;;;;;;;;;;;8.50;99.90;;;;;;5070803;28;19925;-82
2021/12/16 08:03:50;;;;;;;;;;;8.40;99.90;;;;;;5064878;28;19929;-82
2021/12/16 08:06:21;;;;;;;;;;;8.50;99.90;;;;;;5063449;28;19931;-82
2021/12/16 08:08:49;;;;;;;;;;;8.50;99.90;;;;;;5063019;28;20299;-82
2021/12/16 08:11:16;;;;;;;;;;;8.50;99.90;;;;;;5062593;28;19924;-82
2021/12/16 08:13:42;;;;;;;;;;;8.50;99.90;;;;;;5064413;28;19925;-82
2021/12/16 08:16:09;;;;;;;;;;;8.90;99.90;;;;;;5061648;28;19925;-82
2021/12/16 08:18:36;;;;;;;;;;;8.20;99.90;;;;;;5062653;28;19924;-82
2021/12/16 08:21:03;;;;;;;;;;;8.60;99.90;;;;;;5071538;28;20338;-82
2021/12/16 08:23:29;;;;;;;;;;;8.60;99.90;;;;;;5070973;28;19925;-82
2021/12/16 08:25:57;;;;;;;;;;;8.80;99.90;;;;;;5072296;28;19998;-82
2021/12/16 08:28:25;;;;;;;;;;;8.70;99.90;;;;;;5079291;28;19925;-82
2021/12/16 08:30:52;;;;;;;;;;;8.60;99.90;;;;;;5062599;28;19933;-81
2021/12/16 08:33:19;;;;;;;;;;;8.60;99.90;;;;;;5060703;28;19925;-81
2021/12/16 08:35:47;;;;;;;;;;;8.70;99.90;;;;;;5060926;28;19925;-82
2021/12/16 08:38:16;;;;;;;;;;;8.70;99.90;;;;;;5061269;28;20335;-81
2021/12/16 08:40:43;;;;;;;;;;;8.80;99.90;;;;;;5060689;28;19947;-81
2021/12/16 08:43:11;;;;;;;;;;;8.80;99.90;;;;;;5061373;28;19925;-81
2021/12/16 08:45:39;;;;;;;;;;;8.80;99.90;;;;;;5071002;28;19924;-80
2021/12/16 08:48:07;;;;;;;;;;;8.80;99.90;;;;;;5064017;28;19931;-81
2021/12/16 08:50:35;;;;;;;;;;;8.70;99.90;;;;;;5063616;28;19924;-81
2021/12/16 08:53:02;;;;;;;;;;;8.70;99.90;;;;;;5072678;28;19931;-80
2021/12/16 08:55:29;;;;;;;;;;;8.80;99.90;;;;;;5072984;28;19924;-82
2021/12/16 08:57:56;;;;;;;;;;;8.70;99.90;;;;;;5072739;28;19934;-82
2021/12/16 09:00:26;;;;;;;;;;;8.80;99.90;;;;;;5074282;28;19931;-80
2021/12/16 09:02:52;;;;;;;;;;;8.80;99.90;;;;;;5075229;28;19929;-81
2021/12/16 09:05:20;;;;;;;;;;;8.80;99.90;;;;;;5071725;22;19995;-85
2021/12/16 09:07:48;;;;;;;;;;;8.80;99.90;;;;;;5044508;28;19936;-86
2021/12/16 09:10:20;;;;;;;;;;;8.60;99.90;;;;;;5047031;28;19931;-87
2021/12/16 09:13:01;;;;;;;;;;;8.70;99.90;;;;;;5047063;28;19925;-86
2021/12/16 09:15:30;;;;;;;;;;;8.70;99.90;;;;;;5044434;28;19929;-86
2021/12/16 09:17:56;;;;;;;;;;;8.70;99.90;;;;;;5045543;28;20335;-86
2021/12/16 09:20:24;;;;;;;;;;;8.90;99.90;;;;;;5055424;28;20273;-84
2021/12/16 09:22:51;;;;;;;;;;;8.80;99.90;;;;;;5056593;28;19917;-85
2021/12/16 09:25:18;;;;;;;;;;;8.80;99.90;;;;;;5059137;28;20009;-83
2021/12/16 09:27:44;;;;;;;;;;;9.00;99.90;;;;;;5058950;28;19913;-86
2021/12/16 09:30:12;;;;;;;;;;;8.90;99.90;;;;;;5058710;28;19925;-87
2021/12/16 09:32:40;;;;;;;;;;;8.90;99.90;;;;;;5058430;28;19913;-85
2021/12/16 09:35:08;;;;;;;;;;;8.70;99.90;;;;;;5058905;28;19969;-84
2021/12/16 09:37:35;;;;;;;;;;;8.70;99.90;;;;;;5058125;28;19925;-86
2021/12/16 09:40:02;;;;;;;;;;;8.80;99.90;;;;;;5047735;28;19925;-84
2021/12/16 09:42:30;;;;;;;;;;;8.70;99.90;;;;;;5047321;28;19925;-85
2021/12/16 09:44:57;;;;;;;;;;;8.80;99.90;;;;;;5046513;28;19925;-85
2021/12/16 09:47:27;;;;;;;;;;;7.90;99.90;;;;;;5045732;28;19925;-86
2021/12/16 09:49:55;;;;;;;;;;;8.80;99.90;;;;;;5044671;28;20451;-86
2021/12/16 09:52:22;;;;;;;;;;;8.80;99.90;;;;;;5043443;28;19933;-87
2021/12/16 09:54:48;;;;;;;;;;;8.80;99.90;;;;;;5042940;28;19929;-87
2021/12/16 09:57:17;;;;;;;;;;;8.80;99.90;;;;;;5044839;28;19948;-86
2021/12/16 09:59:44;;;;;;;;;;;8.80;99.90;;;;;;5044959;28;19932;-87
2021/12/16 10:02:14;;;;;;;;;;;8.30;99.90;;;;;;5044666;28;19925;-87
2021/12/16 10:04:41;;;;;;;;;;;8.70;99.90;;;;;;5045170;28;19925;-86
2021/12/16 10:07:13;;;;;;;;;;;8.80;99.90;;;;;;5053016;28;19925;-87
2021/12/16 10:09:39;;;;;;;;;;;8.80;99.90;;;;;;5048878;28;19925;-88
2021/12/16 10:12:12;;;;;;;;;;;8.80;99.90;;;;;;5047836;28;20013;-86
2021/12/16 10:15:01;;;;;;;;;;;8.80;99.90;;;;;;5048740;28;19936;-86
2021/12/16 10:17:31;;;;;;;;;;;8.80;99.90;;;;;;5047542;28;20016;-86
2021/12/16 10:20:04;;;;;;;;;;;8.80;99.90;;;;;;5046804;28;19948;-87
2021/12/16 10:22:38;;;;;;;;;;;8.90;99.90;;;;;;5047666;28;19925;-87
2021/12/16 10:25:20;;;;;;;;;;;8.90;99.90;;;;;;5046190;28;19978;-87
2021/12/16 10:27:58;;;;;;;;;;;8.90;99.90;;;;;;5047320;28;19925;-86
2021/12/16 10:30:25;;;;;;;;;;;8.80;99.90;;;;;;5048984;28;19933;-88
2021/12/16 10:32:54;;;;;;;;;;;9.20;99.90;;;;;;5048974;28;19933;-85
2021/12/16 10:35:30;;;;;;;;;;;9.00;99.90;;;;;;5051914;28;19984;-87
2021/12/16 10:38:00;;;;;;;;;;;9.00;99.90;;;;;;5045513;28;19925;-86
2021/12/16 10:40:33;;;;;;;;;;;8.70;99.90;;;;;;5043563;28;19933;-86
2021/12/16 10:43:01;;;;;;;;;;;7.70;99.90;;;;;;5045071;28;19925;-87
2021/12/16 10:45:28;;;;;;;;;;;8.90;99.90;;;;;;5057522;28;19913;-84
2021/12/16 10:48:09;;;;;;;;;;;9.00;99.90;;;;;;5062052;28;19936;-85
2021/12/16 10:51:03;;;;;;;;;;;9.10;99.90;;;;;;5061746;28;19909;-84
2021/12/16 10:53:48;;;;;;;;;;;9.10;99.90;;;;;;5015522;28;19920;-83
2021/12/16 10:56:17;;;;;;;;;;;9.10;99.90;;;;;;5061379;28;19936;-86
2021/12/16 10:58:48;;;;;;;;;;;9.10;99.90;;;;;;5061790;28;19909;-84
2021/12/16 11:01:34;;;;;;;;;;;9.40;99.90;;;;;;5060898;28;19935;-86
2021/12/16 11:04:01;;;;;;;;;;;9.80;99.90;;;;;;5057167;28;19925;-86
2021/12/16 11:06:29;;;;;;;;;;;9.30;99.90;;;;;;5058315;28;19935;-87
2021/12/16 11:08:55;;;;;;;;;;;9.30;99.90;;;;;;5050402;28;19948;-86
2021/12/16 11:11:30;;;;;;;;;;;9.20;99.90;;;;;;5049631;28;19991;-86
2021/12/16 11:14:04;;;;;;;;;;;9.20;99.90;;;;;;5050594;28;19971;-85
2021/12/16 11:16:31;;;;;;;;;;;9.30;99.90;;;;;;5048408;28;19932;-87
2021/12/16 11:18:58;;;;;;;;;;;9.30;99.90;;;;;;5047455;28;19932;-86
2021/12/16 11:21:32;;;;;;;;;;;9.40;99.90;;;;;;5047390;28;19925;-86
2021/12/16 11:23:58;;;;;;;;;;;9.00;99.90;;;;;;5051700;28;19936;-87
2021/12/16 11:26:28;;;;;;;;;;;9.50;99.90;;;;;;5052419;28;19925;-86
2021/12/16 11:28:56;;;;;;;;;;;9.10;99.90;;;;;;5052152;28;19925;-87
2021/12/16 11:31:24;;;;;;;;;;;8.90;99.90;;;;;;5048492;28;19932;-87
2021/12/16 11:33:52;;;;;;;;;;;9.40;99.90;;;;;;5047587;28;19965;-87
2021/12/16 11:36:22;;;;;;;;;;;9.20;99.90;;;;;;5046091;28;19929;-86
2021/12/16 11:38:54;;;;;;;;;;;9.40;99.90;;;;;;5045876;28;19956;-88
2021/12/16 11:41:31;;;;;;;;;;;9.30;99.90;;;;;;5046711;28;19932;-86
2021/12/16 11:44:01;;;;;;;;;;;9.30;99.90;;;;;;5044277;28;19925;-88
2021/12/16 11:46:30;;;;;;;;;;;9.30;99.90;;;;;;5045408;28;19929;-87
2021/12/16 11:48:59;;;;;;;;;;;9.60;99.90;;;;;;5051508;28;19925;-86
2021/12/16 11:51:28;;;;;;;;;;;9.10;99.90;;;;;;5060139;28;19909;-84
2021/12/16 11:53:56;;;;;;;;;;;9.50;99.90;;;;;;5060848;28;19939;-86
2021/12/16 11:56:33;;;;;;;;;;;9.50;99.90;;;;;;5060459;28;19913;-85
2021/12/16 11:59:01;;;;;;;;;;;9.50;99.90;;;;;;5060654;28;19940;-86
2021/12/16 12:01:28;;;;;;;;;;;9.50;99.90;;;;;;5060576;28;19913;-86
2021/12/16 12:04:00;;;;;;;;;;;9.60;99.90;;;;;;5060222;28;19980;-86
2021/12/16 12:06:28;;;;;;;;;;;9.70;99.90;;;;;;5058567;28;19909;-85
2021/12/16 12:08:56;;;;;;;;;;;9.70;99.90;;;;;;5054600;28;19913;-86
2021/12/16 12:11:24;;;;;;;;;;;10.00;99.90;;;;;;5060198;28;19913;-82
2021/12/16 12:13:54;;;;;;;;;;;9.70;99.90;;;;;;5060065;28;19948;-84
2021/12/16 12:16:24;;;;;;;;;;;9.60;99.90;;;;;;5054742;28;19913;-86
2021/12/16 12:18:52;;;;;;;;;;;9.80;99.90;;;;;;5058601;28;19925;-86
2021/12/16 12:21:36;;;;;;;;;;;9.70;99.90;;;;;;5055764;28;19928;-84
2021/12/16 12:24:06;;;;;;;;;;;9.70;99.90;;;;;;5050082;28;19948;-84
2021/12/16 12:26:33;;;;;;;;;;;9.80;99.90;;;;;;5052845;28;19947;-85
2021/12/16 12:29:01;;;;;;;;;;;9.80;99.90;;;;;;5044523;28;19971;-87
2021/12/16 12:31:30;;;;;;;;;;;9.70;99.90;;;;;;5042665;28;19933;-86
2021/12/16 12:33:57;;;;;;;;;;;9.80;99.90;;;;;;5043697;28;19991;-88
2021/12/16 12:36:24;;;;;;;;;;;9.90;99.90;;;;;;5043240;28;19952;-87
2021/12/16 12:38:51;;;;;;;;;;;9.70;99.90;;;;;;5042922;28;19929;-86
2021/12/16 12:41:18;;;;;;;;;;;9.80;99.90;;;;;;5042563;28;19925;-87
2021/12/16 12:43:44;;;;;;;;;;;9.70;99.90;;;;;;5048318;28;19925;-86
2021/12/16 12:46:13;;;;;;;;;;;9.80;99.90;;;;;;5053941;28;19926;-85
2021/12/16 12:48:42;;;;;;;;;;;9.60;99.90;;;;;;5040978;28;20277;-86
2021/12/16 12:51:08;;;;;;;;;;;9.60;99.90;;;;;;5041288;28;19951;-87
2021/12/16 12:53:37;;;;;;;;;;;9.50;99.90;;;;;;5042946;28;19936;-86
2021/12/16 12:56:11;;;;;;;;;;;9.40;99.90;;;;;;5046974;28;19936;-86
2021/12/16 12:58:48;;;;;;;;;;;9.30;99.90;;;;;;5040930;28;19925;-86
2021/12/16 13:01:14;;;;;;;;;;;9.40;99.90;;;;;;5043155;28;20388;-88
2021/12/16 13:03:42;;;;;;;;;;;9.30;99.90;;;;;;5043274;28;19971;-85
2021/12/16 13:06:10;;;;;;;;;;;9.30;99.90;;;;;;5040431;28;20025;-85
2021/12/16 13:08:38;;;;;;;;;;;9.40;99.90;;;;;;5041916;28;19932;-85
2021/12/16 13:11:06;;;;;;;;;;;9.40;99.90;;;;;;5045677;28;19967;-85
2021/12/16 13:13:40;;;;;;;;;;;9.30;99.90;;;;;;5042714;28;20297;-87
2021/12/16 13:16:39;;;;;;;;;;;9.30;99.90;;;;;;5041678;28;20384;-87
2021/12/16 13:27:45;;;;;;;;;;;9.00;99.90;;;;;;5042440;28;19951;-85
2021/12/16 13:30:21;;;;;;;;;;;9.20;99.90;;;;;;5050434;28;19925;-84
2021/12/16 13:33:12;;;;;;;;;;;9.20;99.90;;;;;;5052892;28;19935;-87
2021/12/16 13:35:47;;;;;;;;;;;9.20;99.90;;;;;;5046027;28;19971;-87
2021/12/16 13:38:14;;;;;;;;;;;9.00;99.90;;;;;;5048037;28;19941;-84
2021/12/16 13:40:42;;;;;;;;;;;9.20;99.90;;;;;;5058509;28;19909;-85
2021/12/16 13:43:14;;;;;;;;;;;9.20;99.90;;;;;;5057346;28;19929;-87
2021/12/16 13:45:46;;;;;;;;;;;9.00;99.90;;;;;;5051172;28;19937;-86
2021/12/16 13:48:33;;;;;;;;;;;9.10;99.90;;;;;;5051454;28;20277;-87
2021/12/16 14:05:43;;;;;;;;;;;9.00;99.90;;;;;;5043959;28;19921;-86
2021/12/16 14:08:13;;;;;;;;;;;9.00;99.90;;;;;;5042734;28;20455;-86
2021/12/16 14:10:53;;;;;;;;;;;8.90;99.90;;;;;;5048566;28;19913;-84
2021/12/16 14:16:23;;;;;;;;;;;9.00;99.90;;;;;;5040222;28;19921;-86
2021/12/16 14:24:57;;;;;;;;;;;8.80;99.90;;;;;;5042015;28;20030;-86
2021/12/16 14:31:08;;;;;;;;;;;8.80;99.90;;;;;;5043582;28;19932;-86
2021/12/16 14:36:10;;;;;;;;;;;8.80;99.90;;;;;;5045368;28;19961;-87
2021/12/16 14:41:41;;;;;;;;;;;8.60;99.90;;;;;;5039722;28;19909;-84
2021/12/16 14:45:09;;;;;;;;;;;8.70;99.90;;;;;;5057488;28;19932;-84
2021/12/16 14:47:12;;;;;;;;;;;8.30;99.90;;;;;;5049591;28;19932;-88
2021/12/16 14:49:42;;;;;;;;;;;8.60;99.90;;;;;;5042767;28;20025;-87
2021/12/16 14:52:13;;;;;;;;;;;8.60;99.90;;;;;;5043055;28;19972;-87
2021/12/16 14:54:45;;;;;;;;;;;8.60;99.90;;;;;;5043841;28;19925;-87
2021/12/16 14:57:13;;;;;;;;;;;8.50;99.90;;;;;;5051342;28;19925;-87
2021/12/16 14:59:39;;;;;;;;;;;8.50;99.90;;;;;;5052137;28;19925;-86
2021/12/16 15:02:08;;;;;;;;;;;8.50;99.90;;;;;;5050468;28;19971;-86
2021/12/16 15:04:34;;;;;;;;;;;8.40;99.90;;;;;;5070444;22;21017;-81
2021/12/16 15:07:05;;;;;;;;;;;8.40;99.90;;;;;;5053446;28;19947;-81
2021/12/16 15:09:36;;;;;;;;;;;8.40;99.90;;;;;;5050697;28;19988;-81
2021/12/16 15:12:08;;;;;;;;;;;8.30;99.90;;;;;;5051400;28;19925;-81
2021/12/16 15:14:53;;;;;;;;;;;8.30;99.90;;;;;;5051636;28;19971;-82
2021/12/16 15:17:38;;;;;;;;;;;8.30;99.90;;;;;;5049905;28;19925;-81
2021/12/16 15:36:51;;;;;;;;;;;8.00;99.90;;;;;;5014518;28;19921;-82
2021/12/16 15:39:39;;;;;;;;;;;7.90;99.90;;;;;;5043403;28;19925;-82
2021/12/16 15:44:54;;;;;;;;;;;7.90;99.90;;;;;;5042027;28;20019;-81
2021/12/16 15:47:23;;;;;;;;;;;7.90;99.90;;;;;;5041509;28;19969;-82
2021/12/16 15:49:52;;;;;;;;;;;7.80;99.90;;;;;;5040751;28;19979;-82
2021/12/16 15:52:19;;;;;;;;;;;7.80;99.90;;;;;;5042746;28;19980;-82
2021/12/16 15:54:50;;;;;;;;;;;7.80;99.90;;;;;;5044455;28;19925;-81
2021/12/16 15:57:17;;;;;;;;;;;7.80;99.90;;;;;;5047134;28;19929;-81
2021/12/16 16:02:26;;;;;;;;;;;7.80;99.90;;;;;;5043275;28;19972;-80
2021/12/16 16:04:53;;;;;;;;;;;7.80;99.90;;;;;;5042539;28;19933;-81
2021/12/16 16:07:20;;;;;;;;;;;7.80;99.90;;;;;;5043030;28;19948;-82
2021/12/16 16:09:50;;;;;;;;;;;7.80;99.90;;;;;;5043598;28;19929;-82
2021/12/16 16:12:18;;;;;;;;;;;7.90;99.90;;;;;;5043563;28;19935;-83
2021/12/16 16:14:49;;;;;;;;;;;7.80;99.90;;;;;;5042649;28;19964;-82
2021/12/16 16:17:18;;;;;;;;;;;7.80;99.90;;;;;;5043416;28;19925;-83
2021/12/16 16:19:47;;;;;;;;;;;7.90;99.90;;;;;;5042911;28;19926;-83
2021/12/16 16:22:14;;;;;;;;;;;7.80;99.90;;;;;;5043217;28;19926;-82
2021/12/16 16:24:41;;;;;;;;;;;7.80;99.90;;;;;;5042742;28;19968;-81
2021/12/16 16:27:10;;;;;;;;;;;7.80;99.90;;;;;;5043054;28;19925;-82
2021/12/16 16:29:37;;;;;;;;;;;7.80;99.90;;;;;;5044875;28;19948;-81
2021/12/16 16:32:05;;;;;;;;;;;7.70;99.90;;;;;;5045178;28;19925;-82
2021/12/16 16:34:39;;;;;;;;;;;7.70;99.90;;;;;;5046991;28;19925;-81
2021/12/16 16:37:08;;;;;;;;;;;7.70;99.90;;;;;;5047662;28;20453;-82
2021/12/16 16:39:35;;;;;;;;;;;7.80;99.90;;;;;;5048969;28;19983;-82
2021/12/16 16:42:03;;;;;;;;;;;7.70;99.90;;;;;;5047691;28;19925;-81
2021/12/16 16:44:30;;;;;;;;;;;7.60;99.90;;;;;;5047948;28;19925;-82
2021/12/16 16:47:02;;;;;;;;;;;7.60;99.90;;;;;;5048568;28;20412;-81
2021/12/16 16:49:31;;;;;;;;;;;7.60;99.90;;;;;;5048005;28;20043;-82
2021/12/16 16:51:58;;;;;;;;;;;7.60;99.90;;;;;;5047490;28;19956;-82
2021/12/16 16:54:34;;;;;;;;;;;7.50;99.90;;;;;;5047883;28;19925;-82
2021/12/16 16:57:02;;;;;;;;;;;7.40;99.90;;;;;;5042274;28;19929;-81
2021/12/16 16:59:32;;;;;;;;;;;7.40;99.90;;;;;;5042818;28;19925;-82
2021/12/16 17:01:59;;;;;;;;;;;7.30;99.90;;;;;;5043701;28;20433;-82
2021/12/16 17:04:27;;;;;;;;;;;7.30;99.90;;;;;;5047629;28;19925;-83
2021/12/16 17:06:56;;;;;;;;;;;7.30;99.90;;;;;;5044400;28;19925;-81
2021/12/16 17:09:24;;;;;;;;;;;7.20;99.90;;;;;;5044435;28;19948;-81
2021/12/16 17:11:53;;;;;;;;;;;7.20;99.90;;;;;;5044389;28;19925;-81
2021/12/16 17:14:22;;;;;;;;;;;7.20;99.90;;;;;;5045868;28;19925;-82
2021/12/16 17:19:36;;;;;;;;;;;7.20;99.90;;;;;;5043045;28;19928;-81
2021/12/16 17:22:03;;;;;;;;;;;7.10;99.90;;;;;;5042225;28;19925;-80
2021/12/16 17:24:31;;;;;;;;;;;7.10;99.90;;;;;;5042005;28;19925;-82
2021/12/16 17:27:00;;;;;;;;;;;7.10;99.90;;;;;;5042147;28;19929;-81
2021/12/16 17:29:28;;;;;;;;;;;7.00;99.90;;;;;;5041565;28;19964;-81
2021/12/16 17:31:59;;;;;;;;;;;7.00;99.90;;;;;;5041902;28;20461;-82
2021/12/16 17:34:27;;;;;;;;;;;7.00;99.90;;;;;;5047619;28;19976;-81
2021/12/16 17:36:55;;;;;;;;;;;6.90;99.90;;;;;;5050828;28;19925;-82
2021/12/16 17:39:24;;;;;;;;;;;6.90;99.90;;;;;;5050830;28;19925;-82
2021/12/16 17:41:56;;;;;;;;;;;6.90;99.90;;;;;;5051249;28;19956;-82
2021/12/16 17:44:25;;;;;;;;;;;6.90;99.90;;;;;;5051278;28;19925;-82